createdAt,value
2022-10-10T00:02:20.154Z,3.80
2022-10-10T00:07:23.013Z,3.83
2022-10-10T00:12:25.720Z,4.18
2022-10-10T00:23:48.854Z,3.65
2022-10-10T00:28:51.590Z,3.33
2022-10-10T00:33:54.558Z,3.53
2022-10-10T00:38:58.634Z,3.60
2022-10-10T00:44:03.749Z,4.70
2022-10-10T00:49:12.416Z,3.83
2022-10-10T00:54:18.932Z,3.85
2022-10-10T00:59:22.501Z,3.47
2022-10-10T01:04:36.003Z,4.10
2022-10-10T01:09:43.367Z,4.22
2022-10-10T01:20:22.426Z,4.10
2022-10-10T01:25:31.172Z,4.47
2022-10-10T01:30:36.335Z,4.45
2022-10-10T01:35:49.585Z,4.55
2022-10-10T01:40:57.239Z,4.32
2022-10-10T01:46:02.089Z,3.65
2022-10-10T01:51:21.298Z,5.40
2022-10-10T01:56:36.063Z,5.63
2022-10-10T02:01:48.544Z,6.82
2022-10-10T02:06:55.638Z,7.35
2022-10-10T02:12:00.934Z,6.05
2022-10-10T02:17:09.732Z,7.80
2022-10-10T02:22:12.688Z,5.47
2022-10-10T02:27:22.581Z,7.47
2022-10-10T02:32:32.589Z,5.97
2022-10-10T02:37:37.017Z,5.03
2022-10-10T02:42:41.146Z,6.22
2022-10-10T02:47:45.756Z,4.47
2022-10-10T02:52:48.851Z,4.05
2022-10-10T02:57:51.904Z,4.60
2022-10-10T03:02:55.954Z,4.93
2022-10-10T03:07:58.794Z,5.63
2022-10-10T03:13:02.105Z,5.65
2022-10-10T03:18:06.375Z,6.10
2022-10-10T03:23:09.084Z,5.70
2022-10-10T03:28:12.281Z,5.15
2022-10-10T03:33:16.867Z,5.03
2022-10-10T03:38:20.505Z,5.32
2022-10-10T03:43:23.237Z,5.03
2022-10-10T03:48:27.841Z,4.50
2022-10-10T03:53:30.652Z,4.18
2022-10-10T03:58:33.515Z,4.32
2022-10-10T04:03:37.570Z,4.45
2022-10-10T04:08:40.306Z,4.45
2022-10-10T04:13:43.273Z,3.92
2022-10-10T04:18:47.928Z,6.15
2022-10-10T04:23:50.678Z,4.55
2022-10-10T04:28:53.508Z,3.53
2022-10-10T04:33:57.714Z,3.17
2022-10-10T04:39:00.490Z,3.72
2022-10-10T04:44:03.943Z,3.53
2022-10-10T04:49:08.026Z,5.05
2022-10-10T04:54:10.967Z,5.35
2022-10-10T04:59:13.764Z,5.18
2022-10-10T05:04:17.847Z,5.70
2022-10-10T05:14:48.291Z,5.00
2022-10-10T05:19:53.736Z,4.93
2022-10-10T05:24:56.693Z,5.32
2022-10-10T05:29:59.414Z,4.93
2022-10-10T05:35:04.700Z,5.22
2022-10-10T05:40:08.691Z,5.60
2022-10-10T05:45:11.804Z,5.07
2022-10-10T05:50:28.956Z,7.05
2022-10-10T06:00:35.947Z,12.77
2022-10-10T06:05:42.208Z,8.45
2022-10-10T06:10:47.097Z,6.40
2022-10-10T06:15:52.005Z,8.40
2022-10-10T06:20:56.182Z,10.38
2022-10-10T06:25:58.909Z,6.03
2022-10-10T06:31:04.028Z,6.07
2022-10-10T06:36:09.373Z,7.22
2022-10-10T06:41:12.807Z,8.20
2022-10-10T06:46:15.646Z,12.30
2022-10-10T06:51:19.981Z,10.32
2022-10-10T06:56:27.380Z,7.47
2022-10-10T07:01:30.824Z,24.73
2022-10-10T07:06:35.231Z,5.45
2022-10-10T07:11:38.002Z,5.20
2022-10-10T07:16:40.763Z,8.80
2022-10-10T07:21:45.015Z,8.90
2022-10-10T07:26:47.814Z,7.97
2022-10-10T07:31:50.612Z,6.97
2022-10-10T07:36:54.746Z,7.82
2022-10-10T07:41:57.577Z,4.75
2022-10-10T07:47:00.330Z,5.22
2022-10-10T07:52:05.647Z,9.68
2022-10-10T07:57:11.655Z,7.82
2022-10-10T08:02:14.496Z,5.25
2022-10-10T08:12:46.781Z,5.10
2022-10-10T08:17:49.814Z,5.35
2022-10-10T08:22:54.466Z,5.18
2022-10-10T08:27:57.891Z,4.10
2022-10-10T08:33:02.187Z,4.43
2022-10-10T08:38:06.457Z,4.65
2022-10-10T08:43:11.378Z,4.90
2022-10-10T08:48:17.405Z,4.25
2022-10-10T08:53:25.572Z,5.15
2022-10-10T08:58:33.422Z,4.93
2022-10-10T09:03:40.609Z,4.90
2022-10-10T09:08:55.670Z,5.95
2022-10-10T09:14:14.133Z,5.53
2022-10-10T09:24:39.921Z,3.90
2022-10-10T09:29:53.236Z,4.22
2022-10-10T09:35:02.156Z,4.53
2022-10-10T09:40:13.801Z,4.78
2022-10-10T09:45:20.494Z,4.60
2022-10-10T09:50:24.337Z,4.50
2022-10-10T09:55:34.005Z,4.07
2022-10-10T10:00:37.998Z,4.10
2022-10-10T10:05:42.793Z,4.30
2022-10-10T10:10:47.012Z,4.47
2022-10-10T10:15:52.709Z,4.95
2022-10-10T10:21:12.138Z,3.40
2022-10-10T10:26:22.287Z,3.50
2022-10-10T10:31:44.486Z,3.50
2022-10-10T10:36:57.363Z,3.85
2022-10-10T10:42:11.698Z,3.80
2022-10-10T10:47:32.528Z,4.07
2022-10-10T10:52:54.499Z,3.72
2022-10-10T11:05:18.281Z,3.30
2022-10-10T11:09:45.145Z,3.70
2022-10-10T11:14:56.501Z,3.47
2022-10-10T11:20:04.055Z,2.83
2022-10-10T11:25:15.201Z,2.83
2022-10-10T11:30:22.637Z,2.78
2022-10-10T11:35:35.747Z,2.78
2022-10-10T11:40:47.722Z,3.85
2022-10-10T11:46:02.685Z,2.50
2022-10-10T11:51:16.895Z,2.67
2022-10-10T11:56:29.925Z,2.63
2022-10-10T12:01:37.722Z,2.95
2022-10-10T12:06:45.589Z,2.78
2022-10-10T12:11:53.716Z,2.83
2022-10-10T12:16:59.143Z,2.58
2022-10-10T12:22:04.930Z,2.20
2022-10-10T12:27:47.236Z,2.07
2022-10-10T12:32:54.297Z,2.22
2022-10-10T12:38:22.971Z,2.08
2022-10-10T12:43:37.297Z,5.15
2022-10-10T12:48:42.660Z,2.00
2022-10-10T12:53:51.068Z,2.35
2022-10-10T12:58:53.874Z,2.28
2022-10-10T13:03:58.852Z,3.03
2022-10-10T13:09:03.812Z,3.03
2022-10-10T13:14:09.788Z,2.65
2022-10-10T13:19:19.341Z,1.90
2022-10-10T13:24:32.770Z,2.33
2022-10-10T13:29:37.511Z,2.10
2022-10-10T13:34:47.721Z,2.53
2022-10-10T13:39:52.156Z,3.45
2022-10-10T13:44:56.114Z,4.28
2022-10-10T13:50:00.255Z,3.35
2022-10-10T13:55:17.014Z,4.22
2022-10-10T14:00:23.371Z,3.67
2022-10-10T14:05:30.219Z,3.50
2022-10-10T14:10:35.968Z,3.60
2022-10-10T14:15:45.633Z,3.40
2022-10-10T14:20:50.694Z,3.38
2022-10-10T14:25:53.599Z,3.97
2022-10-10T14:30:56.423Z,4.72
2022-10-10T14:36:06.903Z,3.75
2022-10-10T14:41:12.943Z,3.92
2022-10-10T14:46:20.638Z,3.70
2022-10-10T14:51:33.695Z,3.45
2022-10-10T14:57:09.326Z,3.75
2022-10-10T15:02:00.791Z,4.32
2022-10-10T15:07:13.473Z,3.47
2022-10-10T15:12:17.528Z,4.40
2022-10-10T15:17:20.623Z,4.53
2022-10-10T15:22:25.553Z,5.15
2022-10-10T15:27:29.039Z,4.55
2022-10-10T15:32:31.842Z,4.90
2022-10-10T15:37:36.231Z,4.90
2022-10-10T15:42:39.497Z,5.53
2022-10-10T15:47:46.486Z,5.32
2022-10-10T15:52:50.898Z,6.22
2022-10-10T15:57:53.617Z,11.23
2022-10-10T16:02:56.438Z,3.67
2022-10-10T16:08:00.850Z,3.80
2022-10-10T16:13:03.762Z,4.60
2022-10-10T16:18:07.013Z,9.10
2022-10-10T16:23:11.131Z,36.97
2022-10-10T16:28:13.998Z,28.50
2022-10-10T16:33:17.059Z,18.52
2022-10-10T16:38:21.271Z,20.00
2022-10-10T16:43:24.033Z,35.90
2022-10-10T16:48:26.884Z,5.72
2022-10-10T16:53:30.973Z,5.20
2022-10-10T16:58:34.166Z,5.45
2022-10-10T17:03:37.104Z,5.88
2022-10-10T17:08:41.567Z,4.93
2022-10-10T17:13:45.482Z,6.88
2022-10-10T17:18:49.380Z,10.93
2022-10-10T17:23:53.479Z,5.38
2022-10-10T17:28:58.863Z,7.22
2022-10-10T17:34:02.572Z,8.75
2022-10-10T17:39:07.569Z,4.78
2022-10-10T17:44:11.110Z,6.82
2022-10-10T17:49:14.110Z,5.55
2022-10-10T17:54:18.587Z,6.07
2022-10-10T17:59:21.348Z,4.88
2022-10-10T18:04:24.171Z,6.45
2022-10-10T18:09:28.265Z,6.53
2022-10-10T18:14:30.977Z,6.53
2022-10-10T18:19:33.994Z,6.97
2022-10-10T18:24:38.793Z,6.00
2022-10-10T18:29:42.353Z,6.78
2022-10-10T18:34:45.070Z,7.35
2022-10-10T18:39:49.347Z,7.85
2022-10-10T18:44:52.617Z,6.72
2022-10-10T18:49:55.306Z,7.43
2022-10-10T18:54:59.639Z,6.38
2022-10-10T19:00:02.387Z,7.35
2022-10-10T19:05:05.801Z,8.32
2022-10-10T19:10:10.146Z,8.30
2022-10-10T19:15:14.741Z,7.00
2022-10-10T19:20:17.894Z,7.93
2022-10-10T19:25:22.250Z,8.65
2022-10-10T19:30:26.569Z,7.78
2022-10-10T19:35:29.261Z,9.32
2022-10-10T19:40:33.529Z,8.25
2022-10-10T19:45:40.514Z,9.40
2022-10-10T19:50:45.105Z,7.28
2022-10-10T19:56:00.472Z,8.77
2022-10-10T20:01:07.425Z,7.85
2022-10-10T20:06:10.425Z,8.23
2022-10-10T20:11:15.518Z,7.55
2022-10-10T20:16:18.441Z,7.10
2022-10-10T20:21:24.145Z,16.00
2022-10-10T20:26:28.689Z,9.32
2022-10-10T20:37:02.241Z,8.50
2022-10-10T20:42:06.569Z,10.00
2022-10-10T20:47:09.375Z,8.93
2022-10-10T20:52:12.415Z,9.43
2022-10-10T20:57:16.541Z,9.70
2022-10-10T21:02:19.693Z,8.40
2022-10-10T21:07:23.517Z,8.73
2022-10-10T21:12:27.718Z,9.43
2022-10-10T21:17:31.478Z,11.40
2022-10-10T21:22:34.330Z,10.75
2022-10-10T21:27:38.433Z,9.77
2022-10-10T21:32:41.286Z,10.20
2022-10-10T21:37:45.450Z,12.10
2022-10-10T21:42:49.528Z,11.38
2022-10-10T21:47:52.267Z,13.38
2022-10-10T21:52:55.091Z,12.43
2022-10-10T21:57:59.656Z,14.30
2022-10-10T22:03:03.254Z,13.00
2022-10-10T22:08:06.041Z,15.55
2022-10-10T22:13:10.243Z,16.92
2022-10-10T22:18:13.206Z,16.60
2022-10-10T22:23:16.021Z,18.77
2022-10-10T22:28:21.432Z,19.40
2022-10-10T22:33:24.235Z,20.77
2022-10-10T22:38:27.115Z,22.02
2022-10-10T22:43:31.235Z,21.85
2022-10-10T22:48:34.017Z,20.90
2022-10-10T22:53:37.130Z,20.73
2022-10-10T22:58:41.180Z,17.55
2022-10-10T23:03:44.011Z,11.32
2022-10-10T23:08:46.753Z,4.72
2022-10-10T23:13:50.910Z,6.38
2022-10-10T23:18:53.626Z,5.40
2022-10-10T23:23:56.358Z,4.00
2022-10-10T23:29:00.614Z,3.53
2022-10-10T23:34:03.810Z,3.95
2022-10-10T23:39:09.734Z,3.55
2022-10-10T23:44:14.141Z,3.38
2022-10-10T23:49:16.878Z,3.67
2022-10-10T23:54:21.463Z,3.15
2022-10-10T23:59:26.233Z,2.10
